首页
METAR-TAF:

METAR-TAF

机场 :

昆明长水国际机场

昆明, 中华人民共和国

纬度: 25-01N, 经度: 102-41E, 海拔: 1892米

当前天气观测

该预报发布于31分钟前的15:00 UTC
风速10节,风向东北
温度 17°C
湿度 94%
气压 1020 hPa
能见度10公里或以上
少量云层高于2300英尺, 塔状积云.
散云层高于2300英尺
多云层高于3600英尺
小阵雨

METAR: ZPPP 161500Z 04005MPS 9999 -SHRA FEW023TCU SCT023 BKN036 17/16 Q1020 NOSIG

时间: 23:31 (15:31 UTC)

预报

该预报发布于8小时和30分钟前的07:01 UTC
预报有效从16日的 12点(UTC)到 17日的 12点(UTC)
风速12节,风向东北
能见度10公里或以上
散云层高于2600英尺

TAF: ZPPP 160701Z 1612/1712 04006MPS 9999 SCT026 TX25/1708Z TN15/1623Z

超过4000个机场的气象观测和天气预报(METAR&TAF报告)。

可查询的气象台以黄色和红色小点在地图上表示。

将鼠标移到小点上方,可查看气象台名称。

然后点击查看天气观测和预报。

如需切换地图:点击带黑十字的绿色按钮放大地图;点击带横线的绿色按钮缩小地图;或者点击绿色箭头查看邻近地区的地图。


METAR-TAF: